createdAt,value
2023-03-26T00:00:31.061Z,94536.13
2023-03-26T00:03:39.329Z,94530.94
2023-03-26T00:06:48.857Z,94538.00
2023-03-26T00:09:58.113Z,94532.16
2023-03-26T00:13:07.627Z,94524.81
2023-03-26T00:16:20.361Z,94526.19
2023-03-26T00:19:30.193Z,94518.22
2023-03-26T00:22:38.327Z,94521.97
2023-03-26T00:25:50.884Z,94525.63
2023-03-26T00:29:00.256Z,94526.13
2023-03-26T00:32:10.181Z,94523.28
2023-03-26T00:35:18.714Z,94528.31
2023-03-26T00:38:30.938Z,94527.41
2023-03-26T00:41:43.271Z,94523.63
2023-03-26T00:44:54.968Z,94523.28
2023-03-26T00:48:04.956Z,94510.53
2023-03-26T00:51:16.218Z,94508.13
2023-03-26T00:54:24.592Z,94513.81
2023-03-26T00:57:36.282Z,94513.41
2023-03-26T01:00:50.875Z,94503.22
2023-03-26T01:04:28.627Z,94505.72
2023-03-26T01:07:38.167Z,94505.84
2023-03-26T01:10:50.807Z,94510.59
2023-03-26T01:14:08.395Z,94497.66
2023-03-26T01:17:17.112Z,94501.31
2023-03-26T01:20:30.404Z,94504.44
2023-03-26T01:23:49.148Z,94507.38
2023-03-26T01:27:17.729Z,94502.97
2023-03-26T01:30:37.120Z,94501.84
2023-03-26T01:33:57.847Z,94497.47
2023-03-26T01:37:22.556Z,94504.47
2023-03-26T01:40:42.847Z,94505.25
2023-03-26T01:44:01.640Z,94490.75
2023-03-26T01:47:13.650Z,94485.50
2023-03-26T01:50:22.603Z,94486.22
2023-03-26T01:53:33.477Z,94474.81
2023-03-26T01:57:02.240Z,94478.13
2023-03-26T02:00:27.478Z,94469.47
2023-03-26T02:03:46.128Z,94475.69
2023-03-26T02:07:05.726Z,94473.66
2023-03-26T02:10:22.092Z,94472.91
2023-03-26T02:13:31.486Z,94468.19
2023-03-26T02:16:47.111Z,94469.13
2023-03-26T02:19:55.561Z,94464.22
2023-03-26T02:23:04.324Z,94463.22
2023-03-26T02:26:15.773Z,94461.00
2023-03-26T02:29:50.352Z,94448.34
2023-03-26T02:33:03.790Z,94452.22
2023-03-26T02:36:24.246Z,94452.31
2023-03-26T02:39:33.713Z,94441.28
2023-03-26T02:42:49.040Z,94437.34
2023-03-26T02:45:58.318Z,94429.00
2023-03-26T02:49:27.228Z,94433.34
2023-03-26T02:52:36.072Z,94427.00
2023-03-26T02:55:44.434Z,94432.16
2023-03-26T02:58:52.664Z,94417.13
2023-03-26T03:02:00.929Z,94414.91
2023-03-26T03:05:11.685Z,94408.97
2023-03-26T03:08:20.904Z,94404.03
2023-03-26T03:11:53.545Z,94397.78
2023-03-26T03:15:01.879Z,94392.50
2023-03-26T03:18:11.300Z,94390.31
2023-03-26T03:21:21.112Z,94378.13
2023-03-26T03:24:29.345Z,94375.63
2023-03-26T03:27:39.286Z,94374.09
2023-03-26T03:30:53.507Z,94371.66
2023-03-26T03:34:09.172Z,94368.31
2023-03-26T03:37:21.970Z,94366.88
2023-03-26T03:40:34.024Z,94362.78
2023-03-26T03:43:42.676Z,94361.25
2023-03-26T03:46:58.049Z,94366.53
2023-03-26T03:50:08.356Z,94371.06
2023-03-26T03:53:20.032Z,94371.56
2023-03-26T03:56:31.588Z,94371.19
2023-03-26T03:59:58.112Z,94362.16
2023-03-26T04:03:10.023Z,94367.72
2023-03-26T04:06:19.453Z,94359.97
2023-03-26T04:09:34.233Z,94341.16
2023-03-26T04:12:49.881Z,94347.31
2023-03-26T04:16:00.072Z,94338.84
2023-03-26T04:19:08.723Z,94333.84
2023-03-26T04:22:18.695Z,94336.72
2023-03-26T04:25:37.756Z,94349.78
2023-03-26T04:28:57.834Z,94334.22
2023-03-26T04:32:19.488Z,94328.59
2023-03-26T04:35:30.342Z,94320.88
2023-03-26T04:38:44.648Z,94320.91
2023-03-26T04:41:56.455Z,94327.00
2023-03-26T04:45:06.625Z,94323.50
2023-03-26T04:48:15.420Z,94316.00
2023-03-26T04:51:30.221Z,94315.63
2023-03-26T04:54:40.457Z,94309.50
2023-03-26T04:58:03.366Z,94295.47
2023-03-26T05:01:32.268Z,94294.00
2023-03-26T05:04:40.958Z,94303.78
2023-03-26T05:07:50.023Z,94290.28
2023-03-26T05:11:00.669Z,94294.69
2023-03-26T05:14:16.378Z,94286.63
2023-03-26T05:17:27.080Z,94280.53
2023-03-26T05:20:35.975Z,94264.44
2023-03-26T05:23:46.772Z,94266.53
2023-03-26T05:27:00.365Z,94266.53
2023-03-26T05:30:14.449Z,94263.41
2023-03-26T05:33:25.780Z,94261.00
2023-03-26T05:36:43.975Z,94255.72
2023-03-26T05:40:22.511Z,94256.97
2023-03-26T05:43:37.712Z,94260.59
2023-03-26T05:47:00.830Z,94266.78
2023-03-26T05:50:12.185Z,94257.44
2023-03-26T05:53:26.402Z,94255.81
2023-03-26T05:56:54.033Z,94238.94
2023-03-26T06:00:24.209Z,94239.38
2023-03-26T06:03:40.526Z,94228.00
2023-03-26T06:06:57.010Z,94227.81
2023-03-26T06:10:08.499Z,94219.06
2023-03-26T06:13:17.602Z,94227.81
2023-03-26T06:16:28.368Z,94219.84
2023-03-26T06:19:58.600Z,94212.75
2023-03-26T06:23:16.573Z,94207.44
2023-03-26T06:26:57.357Z,94211.34
2023-03-26T06:30:35.144Z,94210.44
2023-03-26T06:33:54.465Z,94200.88
2023-03-26T06:37:04.397Z,94206.34
2023-03-26T06:40:14.842Z,94213.28
2023-03-26T06:43:39.420Z,94207.00
2023-03-26T06:47:02.520Z,94187.47
2023-03-26T06:50:39.528Z,94188.72
2023-03-26T06:54:14.876Z,94185.63
2023-03-26T06:57:35.314Z,94195.00
2023-03-26T07:01:03.489Z,94191.53
2023-03-26T07:04:32.134Z,94194.75
2023-03-26T07:07:59.040Z,94182.34
2023-03-26T07:11:29.331Z,94179.69
2023-03-26T07:14:57.915Z,94178.88
2023-03-26T07:18:26.759Z,94181.31
2023-03-26T07:21:37.066Z,94167.06
2023-03-26T07:24:56.208Z,94152.44
2023-03-26T07:28:28.808Z,94146.94
2023-03-26T07:32:04.824Z,94134.50
2023-03-26T07:35:47.810Z,94119.75
2023-03-26T07:39:28.651Z,94094.59
2023-03-26T07:43:09.392Z,94076.66
2023-03-26T07:46:39.301Z,94061.41
2023-03-26T07:50:06.000Z,94046.31
2023-03-26T07:53:43.059Z,94032.03
2023-03-26T07:57:34.936Z,94033.63
2023-03-26T08:01:11.173Z,94051.84
2023-03-26T08:04:56.305Z,94055.69
2023-03-26T08:08:37.237Z,94054.81
2023-03-26T08:12:27.215Z,94046.34
2023-03-26T08:15:45.399Z,94028.72
2023-03-26T08:19:06.162Z,94031.28
2023-03-26T08:22:27.321Z,94013.28
2023-03-26T08:25:52.683Z,93988.34
2023-03-26T08:29:15.841Z,93973.38
2023-03-26T08:32:24.864Z,93961.63
2023-03-26T08:35:35.265Z,93978.78
2023-03-26T08:38:46.919Z,93984.13
2023-03-26T08:42:49.434Z,93993.59
2023-03-26T08:46:34.292Z,93986.06
2023-03-26T08:50:21.628Z,93994.19
2023-03-26T08:54:15.062Z,93999.56
2023-03-26T08:58:21.408Z,93999.63
2023-03-26T09:02:12.330Z,94002.28
2023-03-26T09:06:08.487Z,93995.78
2023-03-26T09:10:27.541Z,93995.78
2023-03-26T09:14:20.369Z,93980.28
2023-03-26T09:18:27.926Z,93982.03
2023-03-26T09:22:27.751Z,93965.09
2023-03-26T09:26:23.775Z,93961.88
2023-03-26T09:30:31.974Z,93959.94
2023-03-26T09:34:03.797Z,93949.88
2023-03-26T09:37:27.828Z,93938.59
2023-03-26T09:40:44.083Z,93930.81
2023-03-26T09:44:36.181Z,93925.06
2023-03-26T09:48:21.543Z,93937.38
2023-03-26T09:51:54.733Z,93945.56
2023-03-26T09:55:40.440Z,93942.69
2023-03-26T09:59:23.164Z,93924.72
2023-03-26T10:03:00.150Z,93912.06
2023-03-26T10:06:47.232Z,93939.50
2023-03-26T10:10:06.486Z,93934.53
2023-03-26T10:13:31.864Z,93945.34
2023-03-26T10:16:59.500Z,93935.41
2023-03-26T10:20:32.410Z,93936.88
2023-03-26T10:24:09.860Z,93933.78
2023-03-26T10:27:41.183Z,93920.47
2023-03-26T10:31:28.343Z,93911.25
2023-03-26T10:35:11.185Z,93915.44
2023-03-26T10:38:38.881Z,93914.63
2023-03-26T10:42:02.006Z,93922.59
2023-03-26T10:45:43.744Z,93935.00
2023-03-26T10:49:53.598Z,93958.66
2023-03-26T10:53:11.385Z,93954.97
2023-03-26T10:56:36.038Z,93954.81
2023-03-26T10:59:44.556Z,93938.63
2023-03-26T11:03:41.876Z,93940.03
2023-03-26T11:07:08.670Z,93919.81
2023-03-26T11:10:27.162Z,93916.84
2023-03-26T11:13:52.030Z,93907.38
2023-03-26T11:17:40.198Z,93911.25
2023-03-26T11:20:57.142Z,93919.88
2023-03-26T11:25:09.952Z,93908.03
2023-03-26T11:28:42.194Z,93891.00
2023-03-26T11:32:16.125Z,93893.19
2023-03-26T11:35:39.482Z,93879.63
2023-03-26T11:38:52.086Z,93884.97
2023-03-26T11:42:14.110Z,93883.94
2023-03-26T11:45:30.795Z,93896.13
2023-03-26T11:48:44.893Z,93896.16
2023-03-26T11:51:54.372Z,93916.13
2023-03-26T11:55:03.354Z,93900.72
2023-03-26T11:58:31.226Z,93903.88
2023-03-26T12:01:50.841Z,93896.25
2023-03-26T12:05:20.847Z,93891.28
2023-03-26T12:08:35.766Z,93896.25
2023-03-26T12:11:54.608Z,93895.66
2023-03-26T12:15:05.093Z,93907.56
2023-03-26T12:18:27.211Z,93899.53
2023-03-26T12:21:48.510Z,93882.09
2023-03-26T12:25:15.431Z,93897.38
2023-03-26T12:28:23.656Z,93889.44
2023-03-26T12:31:53.238Z,93887.38
2023-03-26T12:35:07.721Z,93875.44
2023-03-26T12:38:24.283Z,93879.34
2023-03-26T12:42:25.712Z,93877.66
2023-03-26T12:45:15.744Z,93857.50
2023-03-26T12:48:27.161Z,93847.09
2023-03-26T12:51:49.118Z,93847.00
2023-03-26T12:55:14.487Z,93841.81
2023-03-26T12:58:47.950Z,93829.94
2023-03-26T13:02:21.189Z,93824.16
2023-03-26T13:05:46.607Z,93826.00
2023-03-26T13:09:32.905Z,93820.38
2023-03-26T13:12:52.693Z,93807.84
2023-03-26T13:16:10.619Z,93802.09
2023-03-26T13:19:28.952Z,93801.47
2023-03-26T13:22:53.169Z,93810.69
2023-03-26T13:26:17.168Z,93815.66
2023-03-26T13:29:38.172Z,93817.19
2023-03-26T13:33:10.609Z,93804.28
2023-03-26T13:36:27.623Z,93823.94
2023-03-26T13:39:58.094Z,93805.59
2023-03-26T13:43:35.212Z,93804.66
2023-03-26T13:46:49.742Z,93814.78
2023-03-26T13:50:06.509Z,93808.50
2023-03-26T13:53:20.628Z,93802.38
2023-03-26T13:56:42.089Z,93811.59
2023-03-26T13:59:57.540Z,93808.22
2023-03-26T14:03:19.734Z,93792.34
2023-03-26T14:06:46.736Z,93790.94
2023-03-26T14:10:03.232Z,93787.59
2023-03-26T14:13:23.282Z,93782.59
2023-03-26T14:16:39.387Z,93785.16
2023-03-26T14:20:33.149Z,93764.00
2023-03-26T14:24:13.605Z,93767.25
2023-03-26T14:27:49.641Z,93770.13
2023-03-26T14:31:23.698Z,93766.81
2023-03-26T14:35:00.158Z,93757.81
2023-03-26T14:38:34.074Z,93760.50
2023-03-26T14:41:51.677Z,93751.81
2023-03-26T14:45:36.846Z,93741.41
2023-03-26T14:49:21.899Z,93744.66
2023-03-26T14:52:47.518Z,93737.69
2023-03-26T14:56:54.481Z,93739.63
2023-03-26T15:01:10.896Z,93735.88
2023-03-26T15:04:59.159Z,93725.47
2023-03-26T15:09:09.146Z,93713.09
2023-03-26T15:12:35.954Z,93710.13
2023-03-26T15:16:14.978Z,93713.16
2023-03-26T15:20:21.183Z,93715.72
2023-03-26T15:24:14.337Z,93697.56
2023-03-26T15:27:39.618Z,93704.97
2023-03-26T15:31:43.309Z,93719.84
2023-03-26T15:35:33.295Z,93716.16
2023-03-26T15:39:32.215Z,93712.13
2023-03-26T15:42:59.249Z,93714.13
2023-03-26T15:46:33.984Z,93714.00
2023-03-26T15:49:50.550Z,93710.31
2023-03-26T15:53:19.464Z,93706.03
2023-03-26T15:56:49.317Z,93714.44
2023-03-26T16:00:36.082Z,93735.22
2023-03-26T16:03:57.110Z,93727.72
2023-03-26T16:07:26.317Z,93744.97
2023-03-26T16:10:49.871Z,93751.19
2023-03-26T16:14:18.267Z,93750.44
2023-03-26T16:17:27.758Z,93752.63
2023-03-26T16:20:50.767Z,93743.66
2023-03-26T16:24:23.536Z,93739.97
2023-03-26T16:27:36.904Z,93728.25
2023-03-26T16:30:48.409Z,93722.97
2023-03-26T16:34:21.474Z,93724.19
2023-03-26T16:37:43.763Z,93706.47
2023-03-26T16:41:17.141Z,93686.13
2023-03-26T16:44:41.324Z,93685.16
2023-03-26T16:48:03.292Z,93684.34
2023-03-26T16:51:22.969Z,93684.97
2023-03-26T16:54:47.030Z,93679.31
2023-03-26T16:58:08.972Z,93689.16
2023-03-26T17:01:34.750Z,93687.16
2023-03-26T17:04:52.646Z,93684.81
2023-03-26T17:08:11.997Z,93681.56
2023-03-26T17:11:38.651Z,93681.19
2023-03-26T17:15:08.425Z,93673.47
2023-03-26T17:18:33.534Z,93679.22
2023-03-26T17:21:56.794Z,93681.19
2023-03-26T17:25:22.439Z,93696.22
2023-03-26T17:29:15.401Z,93688.81
2023-03-26T17:32:24.522Z,93677.22
2023-03-26T17:35:45.587Z,93683.13
2023-03-26T17:40:12.341Z,93692.31
2023-03-26T17:43:45.022Z,93719.00
2023-03-26T17:46:57.766Z,93727.97
2023-03-26T17:50:15.731Z,93737.31
2023-03-26T17:53:32.255Z,93747.56
2023-03-26T17:56:42.951Z,93742.31
2023-03-26T17:59:58.431Z,93761.44
2023-03-26T18:03:20.266Z,93782.03
2023-03-26T18:06:51.791Z,93788.34
2023-03-26T18:10:33.128Z,93795.28
2023-03-26T18:14:34.848Z,93800.78
2023-03-26T18:17:48.175Z,93792.06
2023-03-26T18:21:03.649Z,93803.41
2023-03-26T18:24:21.784Z,93820.66
2023-03-26T18:27:40.363Z,93827.38
2023-03-26T18:30:51.059Z,93814.66
2023-03-26T18:34:14.100Z,93829.22
2023-03-26T18:37:27.309Z,93807.28
2023-03-26T18:40:43.050Z,93808.69
2023-03-26T18:43:52.906Z,93811.31
2023-03-26T18:47:01.171Z,93803.22
2023-03-26T18:50:19.949Z,93790.00
2023-03-26T18:53:31.758Z,93786.28
2023-03-26T18:56:43.161Z,93775.50
2023-03-26T18:59:55.891Z,93772.28
2023-03-26T19:03:08.168Z,93752.19
2023-03-26T19:06:17.741Z,93752.38
2023-03-26T19:09:31.996Z,93760.47
2023-03-26T19:12:41.366Z,93739.34
2023-03-26T19:15:54.986Z,93739.72
2023-03-26T19:19:08.680Z,93748.97
2023-03-26T19:22:19.123Z,93746.34
2023-03-26T19:25:35.395Z,93748.34
2023-03-26T19:28:50.737Z,93743.53
2023-03-26T19:32:07.395Z,93757.13
2023-03-26T19:35:24.140Z,93752.25
2023-03-26T19:38:44.182Z,93758.34
2023-03-26T19:41:54.408Z,93759.69
2023-03-26T19:45:07.061Z,93746.38
2023-03-26T19:48:45.841Z,93741.38
2023-03-26T19:51:53.268Z,93744.63
2023-03-26T19:55:05.179Z,93747.66
2023-03-26T19:58:13.772Z,93753.78
2023-03-26T20:01:26.759Z,93760.03
2023-03-26T20:04:36.803Z,93765.41
2023-03-26T20:07:45.297Z,93755.63
2023-03-26T20:10:55.758Z,93755.25
2023-03-26T20:14:13.526Z,93743.06
2023-03-26T20:17:22.386Z,93750.41
2023-03-26T20:20:34.266Z,93747.13
2023-03-26T20:23:43.117Z,93754.88
2023-03-26T20:26:51.470Z,93751.59
2023-03-26T20:30:00.297Z,93754.06
2023-03-26T20:36:32.711Z,93736.19
2023-03-26T20:39:43.086Z,93737.78
2023-03-26T20:42:51.647Z,93736.75
2023-03-26T20:46:01.679Z,93740.84
2023-03-26T20:49:11.058Z,93737.38
2023-03-26T20:52:22.812Z,93743.41
2023-03-26T20:55:31.161Z,93740.22
2023-03-26T20:58:40.175Z,93738.56
2023-03-26T21:01:49.758Z,93734.72
2023-03-26T21:04:58.617Z,93728.00
2023-03-26T21:08:18.557Z,93745.88
2023-03-26T21:11:44.470Z,93760.72
2023-03-26T21:14:55.732Z,93765.22
2023-03-26T21:18:05.480Z,93764.81
2023-03-26T21:21:35.689Z,93761.78
2023-03-26T21:25:05.942Z,93755.59
2023-03-26T21:28:39.820Z,93757.41
2023-03-26T21:31:54.000Z,93743.84
2023-03-26T21:35:05.262Z,93751.13
2023-03-26T21:38:15.555Z,93742.19
2023-03-26T21:41:41.184Z,93747.03
2023-03-26T21:44:50.810Z,93742.16
2023-03-26T21:47:59.793Z,93756.38
2023-03-26T21:51:14.689Z,93758.41
2023-03-26T21:54:27.368Z,93758.41
2023-03-26T21:57:57.474Z,93749.94
2023-03-26T22:01:25.083Z,93748.69
2023-03-26T22:04:43.082Z,93751.75
2023-03-26T22:07:58.479Z,93743.97
2023-03-26T22:11:08.264Z,93740.94
2023-03-26T22:14:17.867Z,93735.16
2023-03-26T22:17:26.148Z,93731.38
2023-03-26T22:20:34.927Z,93732.97
2023-03-26T22:23:43.187Z,93727.34
2023-03-26T22:26:51.631Z,93731.19
2023-03-26T22:30:01.161Z,93729.53
2023-03-26T22:33:10.882Z,93732.38
2023-03-26T22:36:22.770Z,93725.72
2023-03-26T22:39:32.324Z,93732.16
2023-03-26T22:42:41.048Z,93745.16
2023-03-26T22:45:53.739Z,93735.97
2023-03-26T22:49:02.137Z,93741.25
2023-03-26T22:52:11.056Z,93743.03
2023-03-26T22:55:29.035Z,93740.06
2023-03-26T22:58:38.962Z,93738.47
2023-03-26T23:01:48.595Z,93729.56
2023-03-26T23:04:57.042Z,93731.59
2023-03-26T23:08:07.720Z,93734.59
2023-03-26T23:11:18.727Z,93728.50
2023-03-26T23:14:28.567Z,93724.72
2023-03-26T23:17:39.343Z,93727.16
2023-03-26T23:20:52.731Z,93723.09
2023-03-26T23:24:01.428Z,93722.72
2023-03-26T23:27:10.801Z,93729.00
2023-03-26T23:30:19.610Z,93720.44
2023-03-26T23:33:33.296Z,93720.66
2023-03-26T23:36:42.277Z,93716.16
2023-03-26T23:39:50.885Z,93719.00
2023-03-26T23:42:59.786Z,93717.56
2023-03-26T23:46:10.357Z,93719.19
2023-03-26T23:49:20.829Z,93725.03
2023-03-26T23:52:30.152Z,93708.78
2023-03-26T23:55:38.336Z,93725.56
2023-03-26T23:58:46.523Z,93721.09
